createdAt,value
2023-01-26T00:02:16.759Z,41.22
2023-01-26T00:04:49.967Z,38.65
2023-01-26T00:07:21.683Z,39.22
2023-01-26T00:09:53.399Z,42.42
2023-01-26T00:12:25.533Z,45.10
2023-01-26T00:14:57.200Z,42.70
2023-01-26T00:17:31.609Z,48.40
2023-01-26T00:20:06.541Z,42.42
2023-01-26T00:22:38.264Z,48.60
2023-01-26T00:25:10.775Z,44.67
2023-01-26T00:27:43.793Z,48.33
2023-01-26T00:30:18.291Z,49.25
2023-01-26T00:32:50.394Z,40.92
2023-01-26T00:35:22.008Z,47.30
2023-01-26T00:37:54.932Z,47.22
2023-01-26T00:40:26.689Z,44.75
2023-01-26T00:42:59.786Z,41.88
2023-01-26T00:45:31.789Z,43.50
2023-01-26T00:48:03.489Z,42.00
2023-01-26T00:50:37.117Z,42.83
2023-01-26T00:53:10.461Z,40.53
2023-01-26T00:55:42.239Z,41.75
2023-01-26T00:58:16.928Z,40.97
2023-01-26T01:00:48.582Z,37.80
2023-01-26T01:03:20.293Z,41.70
2023-01-26T01:05:52.803Z,40.70
2023-01-26T01:08:27.521Z,41.63
2023-01-26T01:11:10.971Z,43.50
2023-01-26T01:13:42.998Z,38.10
2023-01-26T01:16:16.639Z,39.90
2023-01-26T01:18:56.137Z,37.42
2023-01-26T01:21:27.880Z,43.67
2023-01-26T01:24:00.497Z,39.67
2023-01-26T01:26:33.044Z,38.47
2023-01-26T01:29:05.478Z,39.50
2023-01-26T01:31:37.346Z,36.97
2023-01-26T01:34:12.274Z,34.65
2023-01-26T01:36:45.141Z,39.63
2023-01-26T01:39:19.558Z,33.05
2023-01-26T01:41:51.216Z,34.45
2023-01-26T01:44:24.942Z,40.50
2023-01-26T01:47:04.126Z,36.90
2023-01-26T01:49:45.653Z,37.53
2023-01-26T01:52:21.219Z,36.20
2023-01-26T01:54:59.708Z,41.85
2023-01-26T01:57:46.580Z,42.83
2023-01-26T02:00:21.213Z,39.58
2023-01-26T02:03:19.029Z,39.20
2023-01-26T02:06:14.746Z,37.00
2023-01-26T02:08:49.558Z,41.65
2023-01-26T02:14:27.485Z,41.72
2023-01-26T02:16:59.426Z,43.85
2023-01-26T02:20:03.187Z,38.28
2023-01-26T02:22:51.629Z,43.22
2023-01-26T02:25:36.999Z,42.85
2023-01-26T02:28:08.942Z,42.75
2023-01-26T02:30:43.493Z,48.08
2023-01-26T02:33:29.710Z,47.45
2023-01-26T02:36:06.388Z,44.38
2023-01-26T02:38:53.302Z,44.85
2023-01-26T02:41:46.927Z,44.95
2023-01-26T02:44:19.867Z,46.65
2023-01-26T02:46:53.099Z,53.58
2023-01-26T02:49:44.322Z,49.38
2023-01-26T02:52:19.126Z,46.63
2023-01-26T02:55:13.989Z,52.95
2023-01-26T02:57:46.473Z,49.13
2023-01-26T03:00:24.613Z,47.47
2023-01-26T03:03:00.665Z,52.13
2023-01-26T03:05:32.395Z,48.50
2023-01-26T03:08:06.124Z,45.15
2023-01-26T03:10:41.213Z,48.65
2023-01-26T03:13:12.955Z,45.13
2023-01-26T03:15:47.982Z,44.78
2023-01-26T03:18:40.451Z,46.88
2023-01-26T03:21:33.282Z,46.80
2023-01-26T03:24:23.646Z,45.42
2023-01-26T03:27:20.713Z,45.40
2023-01-26T03:29:53.137Z,45.35
2023-01-26T03:32:25.490Z,49.08
2023-01-26T03:34:57.564Z,49.10
2023-01-26T03:37:36.879Z,48.22
2023-01-26T03:40:37.398Z,50.85
2023-01-26T03:43:28.466Z,46.88
2023-01-26T03:46:22.105Z,51.20
2023-01-26T03:49:13.068Z,45.35
2023-01-26T03:52:03.401Z,41.83
2023-01-26T03:54:53.604Z,44.00
2023-01-26T03:57:25.295Z,43.35
2023-01-26T03:59:56.961Z,48.03
2023-01-26T04:02:50.722Z,44.42
2023-01-26T04:05:42.135Z,46.83
2023-01-26T04:08:23.749Z,44.65
2023-01-26T04:11:00.861Z,45.35
2023-01-26T04:13:52.369Z,42.45
2023-01-26T04:16:48.327Z,41.42
2023-01-26T04:19:39.196Z,38.58
2023-01-26T04:22:14.589Z,39.88
2023-01-26T04:24:47.524Z,37.15
2023-01-26T04:27:21.323Z,37.00
2023-01-26T04:29:53.091Z,36.38
2023-01-26T04:32:24.918Z,34.95
2023-01-26T04:34:56.987Z,38.42
2023-01-26T04:37:35.869Z,34.75
2023-01-26T04:40:09.959Z,33.97
2023-01-26T04:42:42.812Z,35.47
2023-01-26T04:45:15.758Z,33.85
2023-01-26T04:47:50.884Z,32.95
2023-01-26T04:50:23.181Z,32.97
2023-01-26T04:52:55.833Z,32.92
2023-01-26T04:55:27.474Z,34.67
2023-01-26T04:57:59.245Z,29.27
2023-01-26T05:00:31.566Z,34.17
2023-01-26T05:03:04.662Z,34.75
2023-01-26T05:05:37.800Z,33.75
2023-01-26T05:08:13.488Z,30.47
2023-01-26T05:13:27.719Z,29.08
2023-01-26T05:16:28.541Z,31.60
2023-01-26T05:19:26.143Z,34.72
2023-01-26T05:22:16.107Z,31.10
2023-01-26T05:25:08.381Z,32.35
2023-01-26T05:27:52.812Z,28.48
2023-01-26T05:30:24.564Z,32.63
2023-01-26T05:33:10.217Z,34.13
2023-01-26T05:35:43.777Z,35.35
2023-01-26T05:38:16.189Z,30.33
2023-01-26T05:40:49.493Z,30.83
2023-01-26T05:43:27.514Z,36.20
2023-01-26T05:46:34.315Z,33.55
2023-01-26T05:49:07.375Z,31.58
2023-01-26T05:51:39.821Z,31.63
2023-01-26T05:54:12.405Z,31.13
2023-01-26T05:56:44.871Z,33.00
2023-01-26T05:59:18.260Z,32.08
2023-01-26T06:01:51.342Z,35.63
2023-01-26T06:04:23.526Z,31.55
2023-01-26T06:07:00.619Z,34.15
2023-01-26T06:09:42.156Z,32.15
2023-01-26T06:12:38.647Z,23.88
2023-01-26T06:15:33.748Z,32.65
2023-01-26T06:18:05.647Z,33.10
2023-01-26T06:20:41.473Z,37.85
2023-01-26T06:23:16.447Z,41.67
2023-01-26T06:25:51.819Z,39.22
2023-01-26T06:28:26.837Z,40.25
2023-01-26T06:31:06.482Z,39.92
2023-01-26T06:33:39.037Z,40.22
2023-01-26T06:36:15.796Z,41.88
2023-01-26T06:38:54.949Z,38.70
2023-01-26T06:41:28.055Z,38.13
2023-01-26T06:44:01.055Z,40.47
2023-01-26T06:46:32.778Z,38.85
2023-01-26T06:49:09.794Z,39.95
2023-01-26T06:51:50.549Z,36.40
2023-01-26T06:54:23.358Z,40.35
2023-01-26T06:57:24.557Z,40.10
2023-01-26T07:00:17.580Z,41.10
2023-01-26T07:03:01.494Z,35.33
2023-01-26T07:05:33.229Z,39.08
2023-01-26T07:08:07.581Z,39.63
2023-01-26T07:10:39.357Z,36.22
2023-01-26T07:13:11.111Z,37.58
2023-01-26T07:15:42.811Z,39.50
2023-01-26T07:18:14.540Z,32.33
2023-01-26T07:20:46.202Z,27.90
2023-01-26T07:23:17.840Z,33.63
2023-01-26T07:25:49.558Z,30.77
2023-01-26T07:28:21.241Z,32.28
2023-01-26T07:30:57.267Z,31.15
2023-01-26T07:33:29.728Z,33.80
2023-01-26T07:36:02.225Z,36.42
2023-01-26T07:38:34.565Z,32.35
2023-01-26T07:41:09.341Z,34.70
2023-01-26T07:43:42.557Z,33.70
2023-01-26T07:46:14.572Z,33.65
2023-01-26T07:48:47.339Z,30.23
2023-01-26T07:51:21.819Z,36.17
2023-01-26T07:53:53.706Z,33.22
2023-01-26T07:56:25.673Z,31.13
2023-01-26T07:58:57.826Z,32.42
2023-01-26T08:01:30.453Z,32.28
2023-01-26T08:04:02.099Z,34.15
2023-01-26T08:06:33.737Z,40.33
2023-01-26T08:09:05.515Z,37.90
2023-01-26T08:11:37.428Z,40.10
2023-01-26T08:14:11.894Z,38.45
2023-01-26T08:16:45.487Z,38.20
2023-01-26T08:19:17.286Z,38.67
2023-01-26T08:21:48.881Z,40.47
2023-01-26T08:24:20.592Z,38.08
2023-01-26T08:26:52.343Z,41.55
2023-01-26T08:29:24.065Z,40.83
2023-01-26T08:31:58.968Z,40.78
2023-01-26T08:37:03.875Z,38.85
2023-01-26T08:39:35.619Z,38.60
2023-01-26T08:42:07.330Z,37.20
2023-01-26T08:44:39.276Z,38.95
2023-01-26T08:47:13.904Z,46.35
2023-01-26T08:49:45.644Z,42.22
2023-01-26T08:52:17.527Z,35.40
2023-01-26T08:54:51.299Z,40.65
2023-01-26T08:57:23.114Z,36.17
2023-01-26T09:02:29.591Z,39.30
2023-01-26T09:05:01.325Z,41.97
2023-01-26T09:07:32.995Z,39.65
2023-01-26T09:10:09.967Z,35.88
2023-01-26T09:12:41.944Z,38.65
2023-01-26T09:15:13.700Z,42.47
2023-01-26T09:17:49.236Z,34.80
2023-01-26T09:20:23.586Z,34.67
2023-01-26T09:22:55.272Z,39.25
2023-01-26T09:25:26.936Z,36.80
2023-01-26T09:27:58.669Z,34.78
2023-01-26T09:30:30.727Z,36.72
2023-01-26T09:33:06.025Z,36.25
2023-01-26T09:35:40.492Z,39.60
2023-01-26T09:38:12.199Z,36.80
2023-01-26T09:41:08.131Z,39.30
2023-01-26T09:43:58.558Z,39.03
2023-01-26T09:46:57.122Z,36.53
2023-01-26T09:50:01.458Z,36.65
2023-01-26T09:52:39.408Z,35.88
2023-01-26T09:55:20.221Z,37.58
2023-01-26T09:58:01.169Z,36.63
2023-01-26T10:00:39.338Z,40.42
2023-01-26T10:03:14.474Z,31.58
2023-01-26T10:05:54.388Z,31.77
2023-01-26T10:09:25.231Z,34.03
2023-01-26T10:12:01.679Z,34.65
2023-01-26T10:14:45.030Z,35.90
2023-01-26T10:17:23.930Z,32.78
2023-01-26T10:20:02.870Z,32.47
2023-01-26T10:22:52.561Z,34.60
2023-01-26T10:25:37.424Z,30.88
2023-01-26T10:28:26.122Z,30.95
2023-01-26T10:30:59.293Z,28.80
2023-01-26T10:33:36.999Z,31.17
2023-01-26T10:36:12.549Z,29.38
2023-01-26T10:38:45.828Z,33.90
2023-01-26T10:41:28.975Z,29.27
2023-01-26T10:44:09.738Z,26.67
2023-01-26T10:46:42.746Z,28.80
2023-01-26T10:49:17.690Z,23.95
2023-01-26T10:54:39.685Z,22.00
2023-01-26T10:57:32.572Z,22.58
2023-01-26T11:00:29.105Z,24.58
2023-01-26T11:03:18.697Z,25.45
2023-01-26T11:06:07.101Z,21.15
2023-01-26T11:08:39.837Z,24.95
2023-01-26T11:11:27.023Z,24.95
2023-01-26T11:14:19.301Z,25.63
2023-01-26T11:16:59.272Z,25.25
2023-01-26T11:19:43.117Z,25.48
2023-01-26T11:22:45.314Z,31.10
2023-01-26T11:25:40.316Z,26.85
2023-01-26T11:28:20.884Z,29.17
2023-01-26T11:30:59.509Z,28.05
2023-01-26T11:33:50.457Z,23.83
2023-01-26T11:36:37.508Z,30.00
2023-01-26T11:39:21.637Z,30.38
2023-01-26T11:42:25.735Z,30.98
2023-01-26T11:45:19.659Z,30.92
2023-01-26T11:48:13.816Z,33.60
2023-01-26T11:50:54.345Z,34.92
2023-01-26T11:53:41.273Z,29.25
2023-01-26T11:56:37.505Z,33.00
2023-01-26T11:59:21.974Z,33.80
2023-01-26T12:02:05.651Z,29.92
2023-01-26T12:04:45.446Z,25.15
2023-01-26T12:07:30.244Z,23.35
2023-01-26T12:10:04.952Z,27.67
2023-01-26T12:15:29.063Z,26.63
2023-01-26T12:18:09.965Z,28.67
2023-01-26T12:21:11.888Z,35.33
2023-01-26T12:24:02.528Z,30.55
2023-01-26T12:26:40.304Z,28.77
2023-01-26T12:29:41.691Z,29.77
2023-01-26T12:32:16.937Z,23.35
2023-01-26T12:34:49.012Z,23.65
2023-01-26T12:37:26.557Z,20.98
2023-01-26T12:40:24.061Z,25.65
2023-01-26T12:43:06.223Z,21.15
2023-01-26T12:45:45.766Z,20.67
2023-01-26T12:48:25.749Z,16.88
2023-01-26T12:51:04.763Z,16.40
2023-01-26T12:53:48.368Z,17.60
2023-01-26T12:56:30.390Z,21.35
2023-01-26T12:59:23.220Z,17.77
2023-01-26T13:05:01.716Z,17.73
2023-01-26T13:07:35.042Z,15.90
2023-01-26T13:10:17.642Z,16.00
2023-01-26T13:13:01.435Z,19.95
2023-01-26T13:15:33.299Z,18.42
2023-01-26T13:18:05.044Z,20.65
2023-01-26T13:21:08.586Z,21.02
2023-01-26T13:23:43.285Z,23.80
2023-01-26T13:26:21.559Z,22.77
2023-01-26T13:29:25.380Z,19.58
2023-01-26T13:32:17.303Z,18.30
2023-01-26T13:34:59.761Z,16.85
2023-01-26T13:37:34.833Z,18.55
2023-01-26T13:40:31.312Z,15.82
2023-01-26T13:43:40.295Z,17.55
2023-01-26T13:46:22.064Z,19.20
2023-01-26T13:48:56.080Z,19.55
2023-01-26T13:51:35.912Z,19.05
2023-01-26T13:54:16.195Z,19.90
2023-01-26T13:57:24.247Z,19.98
2023-01-26T14:00:02.483Z,19.17
2023-01-26T14:02:38.847Z,21.63
2023-01-26T14:05:22.555Z,20.00
2023-01-26T14:07:54.383Z,24.23
2023-01-26T14:10:27.936Z,21.25
2023-01-26T14:13:04.211Z,21.08
2023-01-26T14:15:35.890Z,18.70
2023-01-26T14:18:22.141Z,19.27
2023-01-26T14:21:05.642Z,21.33
2023-01-26T14:23:37.386Z,20.35
2023-01-26T14:26:21.871Z,20.98
2023-01-26T14:28:53.577Z,21.73
2023-01-26T14:31:27.384Z,19.67
2023-01-26T14:34:02.445Z,17.83
2023-01-26T14:36:39.187Z,21.80
2023-01-26T14:39:18.385Z,21.13
2023-01-26T14:41:52.282Z,21.35
2023-01-26T14:44:23.967Z,17.40
2023-01-26T14:47:06.250Z,18.92
2023-01-26T14:50:02.656Z,16.98
2023-01-26T14:52:40.581Z,21.35
2023-01-26T14:55:28.164Z,21.27
2023-01-26T14:58:03.777Z,19.70
2023-01-26T15:03:30.444Z,21.73
2023-01-26T15:06:05.205Z,17.45
2023-01-26T15:08:40.872Z,21.00
2023-01-26T15:11:31.905Z,21.60
2023-01-26T15:14:03.801Z,20.83
2023-01-26T15:16:53.648Z,19.52
2023-01-26T15:19:32.010Z,23.27
2023-01-26T15:22:20.556Z,22.38
2023-01-26T15:25:05.432Z,19.98
2023-01-26T15:27:37.357Z,25.35
2023-01-26T15:30:17.501Z,22.83
2023-01-26T15:32:49.686Z,25.65
2023-01-26T15:35:28.453Z,25.38
2023-01-26T15:38:11.836Z,24.80
2023-01-26T15:40:43.572Z,24.50
2023-01-26T15:43:16.192Z,24.05
2023-01-26T15:45:58.804Z,21.63
2023-01-26T15:48:34.281Z,22.55
2023-01-26T15:51:13.771Z,21.95
2023-01-26T15:53:45.501Z,26.55
2023-01-26T15:56:17.240Z,25.75
2023-01-26T15:58:48.968Z,23.60
2023-01-26T16:01:23.606Z,21.30
2023-01-26T16:03:55.289Z,22.55
2023-01-26T16:06:31.547Z,23.08
2023-01-26T16:09:03.598Z,20.92
2023-01-26T16:11:41.391Z,22.30
2023-01-26T16:14:13.581Z,20.63
2023-01-26T16:16:45.497Z,26.08
2023-01-26T16:19:34.374Z,26.63
2023-01-26T16:22:11.748Z,26.48
2023-01-26T16:24:43.825Z,28.42
2023-01-26T16:27:15.524Z,31.15
2023-01-26T16:29:47.201Z,25.80
2023-01-26T16:32:29.445Z,29.23
2023-01-26T16:35:01.083Z,25.98
2023-01-26T16:37:32.860Z,28.88
2023-01-26T16:40:05.617Z,24.17
2023-01-26T16:42:40.657Z,26.65
2023-01-26T16:45:20.481Z,29.90
2023-01-26T16:47:55.647Z,31.10
2023-01-26T16:50:27.340Z,25.85
2023-01-26T16:52:59.521Z,26.33
2023-01-26T16:55:31.130Z,25.05
2023-01-26T16:58:02.824Z,25.67
2023-01-26T17:00:34.945Z,25.92
2023-01-26T17:03:09.330Z,25.65
2023-01-26T17:05:41.440Z,26.55
2023-01-26T17:08:13.266Z,26.88
2023-01-26T17:11:00.601Z,23.23
2023-01-26T17:13:33.126Z,27.60
2023-01-26T17:16:05.194Z,25.42
2023-01-26T17:18:38.938Z,22.60
2023-01-26T17:21:14.402Z,23.77
2023-01-26T17:23:51.137Z,20.67
2023-01-26T17:26:23.501Z,22.30
2023-01-26T17:28:56.577Z,26.63
2023-01-26T17:31:31.706Z,23.40
2023-01-26T17:34:03.405Z,25.92
2023-01-26T17:36:35.902Z,25.77
2023-01-26T17:39:09.854Z,26.67
2023-01-26T17:41:41.484Z,25.70
2023-01-26T17:44:14.460Z,27.85
2023-01-26T17:46:48.881Z,26.67
2023-01-26T17:49:21.606Z,22.30
2023-01-26T17:51:53.370Z,27.48
2023-01-26T17:54:31.268Z,21.73
2023-01-26T17:57:03.002Z,21.00
2023-01-26T17:59:34.771Z,31.05
2023-01-26T18:02:07.021Z,25.45
2023-01-26T18:04:40.357Z,22.85
2023-01-26T18:07:15.106Z,25.23
2023-01-26T18:09:47.651Z,23.83
2023-01-26T18:12:19.365Z,26.88
2023-01-26T18:14:55.208Z,26.58
2023-01-26T18:17:26.989Z,32.67
2023-01-26T18:19:58.701Z,21.52
2023-01-26T18:22:30.819Z,25.45
2023-01-26T18:25:02.539Z,25.48
2023-01-26T18:27:34.242Z,26.77
2023-01-26T18:30:06.620Z,28.98
2023-01-26T18:32:39.088Z,23.85
2023-01-26T18:35:11.235Z,28.98
2023-01-26T18:37:43.080Z,29.10
2023-01-26T18:40:15.340Z,27.13
2023-01-26T18:42:54.195Z,27.25
2023-01-26T18:45:25.956Z,26.58
2023-01-26T18:47:58.766Z,26.67
2023-01-26T18:50:30.429Z,28.23
2023-01-26T18:53:03.507Z,27.02
2023-01-26T18:55:37.593Z,29.00
2023-01-26T18:58:12.146Z,32.10
2023-01-26T19:00:43.873Z,27.92
2023-01-26T19:03:18.147Z,27.10
2023-01-26T19:05:50.735Z,27.20
2023-01-26T19:08:25.439Z,30.35
2023-01-26T19:10:57.677Z,31.70
2023-01-26T19:13:29.383Z,29.05
2023-01-26T19:16:01.232Z,30.73
2023-01-26T19:18:32.890Z,29.70
2023-01-26T19:21:05.656Z,29.38
2023-01-26T19:23:42.627Z,30.33
2023-01-26T19:26:19.986Z,30.00
2023-01-26T19:28:52.275Z,32.47
2023-01-26T19:31:27.606Z,26.70
2023-01-26T19:34:01.571Z,24.47
2023-01-26T19:36:40.133Z,33.80
2023-01-26T19:39:13.671Z,31.00
2023-01-26T19:41:46.343Z,26.33
2023-01-26T19:44:18.195Z,27.67
2023-01-26T19:46:51.445Z,30.08
2023-01-26T19:49:25.903Z,31.50
2023-01-26T19:51:57.642Z,25.20
2023-01-26T19:54:29.310Z,30.58
2023-01-26T19:57:01.002Z,29.60
2023-01-26T19:59:32.673Z,28.65
2023-01-26T20:02:04.434Z,30.10
2023-01-26T20:04:36.145Z,30.92
2023-01-26T20:07:08.992Z,29.38
2023-01-26T20:09:40.695Z,32.42
2023-01-26T20:12:12.433Z,30.40
2023-01-26T20:14:44.223Z,25.80
2023-01-26T20:17:18.300Z,32.97
2023-01-26T20:19:50.294Z,26.58
2023-01-26T20:22:24.107Z,28.00
2023-01-26T20:24:55.809Z,30.08
2023-01-26T20:27:29.404Z,29.52
2023-01-26T20:30:01.221Z,28.50
2023-01-26T20:32:34.359Z,27.15
2023-01-26T20:35:08.699Z,23.42
2023-01-26T20:37:40.507Z,25.42
2023-01-26T20:40:13.022Z,26.65
2023-01-26T20:42:46.205Z,26.00
2023-01-26T20:45:18.415Z,23.13
2023-01-26T20:47:50.175Z,24.73
2023-01-26T20:50:22.194Z,22.70
2023-01-26T20:52:53.870Z,23.80
2023-01-26T20:55:25.506Z,24.73
2023-01-26T20:57:57.158Z,25.88
2023-01-26T21:00:31.091Z,25.80
2023-01-26T21:03:06.631Z,26.88
2023-01-26T21:05:38.328Z,30.27
2023-01-26T21:08:10.829Z,28.80
2023-01-26T21:10:48.973Z,29.08
2023-01-26T21:13:21.347Z,30.80
2023-01-26T21:15:53.186Z,34.33
2023-01-26T21:18:24.917Z,34.65
2023-01-26T21:21:03.481Z,35.00
2023-01-26T21:23:35.460Z,30.33
2023-01-26T21:26:13.021Z,31.55
2023-01-26T21:28:45.371Z,35.00
2023-01-26T21:31:17.118Z,32.25
2023-01-26T21:33:51.541Z,32.95
2023-01-26T21:36:26.143Z,34.22
2023-01-26T21:39:00.154Z,32.00
2023-01-26T21:41:52.081Z,32.85
2023-01-26T21:44:53.684Z,33.85
2023-01-26T21:47:25.367Z,34.50
2023-01-26T21:49:59.354Z,32.67
2023-01-26T21:52:49.524Z,37.75
2023-01-26T21:55:21.174Z,32.78
2023-01-26T21:58:12.139Z,32.35
2023-01-26T22:00:43.831Z,31.25
2023-01-26T22:03:15.520Z,32.75
2023-01-26T22:05:56.869Z,37.20
2023-01-26T22:08:28.693Z,35.60
2023-01-26T22:11:01.724Z,36.55
2023-01-26T22:13:35.860Z,26.83
2023-01-26T22:16:08.884Z,30.27
2023-01-26T22:18:40.679Z,33.33
2023-01-26T22:21:15.523Z,39.90
2023-01-26T22:26:24.134Z,32.47
2023-01-26T22:28:57.625Z,40.90
2023-01-26T22:31:30.519Z,37.50
2023-01-26T22:34:02.541Z,32.03
2023-01-26T22:36:34.326Z,35.03
2023-01-26T22:39:06.179Z,31.15
2023-01-26T22:41:38.078Z,31.58
2023-01-26T22:44:12.631Z,32.90
2023-01-26T22:46:44.329Z,34.30
2023-01-26T22:49:16.108Z,34.67
2023-01-26T22:51:47.818Z,35.65
2023-01-26T22:54:19.464Z,34.17
2023-01-26T22:56:51.153Z,36.97
2023-01-26T22:59:22.913Z,35.92
2023-01-26T23:01:57.530Z,31.77
2023-01-26T23:04:29.258Z,34.90
2023-01-26T23:07:01.829Z,31.30
2023-01-26T23:09:33.542Z,29.58
2023-01-26T23:12:07.286Z,36.08
2023-01-26T23:14:39.003Z,33.97
2023-01-26T23:17:11.459Z,35.45
2023-01-26T23:19:45.792Z,29.92
2023-01-26T23:22:17.518Z,31.60
2023-01-26T23:25:09.201Z,33.58
2023-01-26T23:27:40.846Z,33.28
2023-01-26T23:30:13.097Z,35.28
2023-01-26T23:32:44.985Z,33.75
2023-01-26T23:35:17.838Z,33.63
2023-01-26T23:37:51.511Z,34.65
2023-01-26T23:40:24.282Z,33.92
2023-01-26T23:43:10.565Z,34.35
2023-01-26T23:46:43.861Z,32.35
2023-01-26T23:49:15.647Z,31.77
2023-01-26T23:51:47.252Z,34.33
2023-01-26T23:54:18.928Z,32.30
2023-01-26T23:56:50.669Z,32.65
2023-01-26T23:59:22.357Z,39.75
